createdAt,value
2017-06-15T00:00:09.811Z,65.65
2017-06-15T00:01:09.850Z,65.75
2017-06-15T00:02:09.891Z,65.65
2017-06-15T00:03:09.928Z,65.84
2017-06-15T00:04:09.966Z,65.65
2017-06-15T00:05:10.007Z,66
2017-06-15T00:06:10.046Z,66
2017-06-15T00:07:10.083Z,65.42
2017-06-15T00:08:10.129Z,65.91
2017-06-15T00:09:10.166Z,66.48
2017-06-15T00:10:10.199Z,65.91
2017-06-15T00:11:10.240Z,66.48
2017-06-15T00:12:10.278Z,65.91
2017-06-15T00:13:10.322Z,66.09
2017-06-15T00:14:10.358Z,66.19
2017-06-15T00:15:10.394Z,65.91
2017-06-15T00:16:10.436Z,65.91
2017-06-15T00:17:10.478Z,66.29
2017-06-15T00:18:10.516Z,66.48
2017-06-15T00:19:10.549Z,66.09
2017-06-15T00:20:10.592Z,66.58
2017-06-15T00:21:10.632Z,66.67
2017-06-15T00:22:10.670Z,66.29
2017-06-15T00:23:10.707Z,66.67
2017-06-15T00:24:10.745Z,66.48
2017-06-15T00:25:10.785Z,66.58
2017-06-15T00:26:10.823Z,66.67
2017-06-15T00:27:10.864Z,66.77
2017-06-15T00:28:10.899Z,66.96
2017-06-15T00:29:10.940Z,66.96
2017-06-15T00:30:10.980Z,66.29
2017-06-15T00:31:11.062Z,66.86
2017-06-15T00:32:11.052Z,66.19
2017-06-15T00:33:11.099Z,66.86
2017-06-15T00:34:11.133Z,66.96
2017-06-15T00:35:11.174Z,66.86
2017-06-15T00:36:11.207Z,67.05
2017-06-15T00:37:11.252Z,66.86
2017-06-15T00:38:11.293Z,66.77
2017-06-15T00:39:11.326Z,66.83
2017-06-15T00:40:11.366Z,66.58
2017-06-15T00:41:11.403Z,66.83
2017-06-15T00:42:11.445Z,66.77
2017-06-15T00:43:11.482Z,67.21
2017-06-15T00:44:11.523Z,67.02
2017-06-15T00:45:11.564Z,67.54
2017-06-15T00:46:11.596Z,67.02
2017-06-15T00:47:11.640Z,67.31
2017-06-15T00:48:11.678Z,67.34
2017-06-15T00:49:11.718Z,67.11
2017-06-15T00:50:11.754Z,67.69
2017-06-15T00:51:11.790Z,67.5
2017-06-15T00:52:11.831Z,67.41
2017-06-15T00:53:11.868Z,67.98
2017-06-15T00:54:11.904Z,67.6
2017-06-15T00:55:11.948Z,67.5
2017-06-15T00:56:11.987Z,67.41
2017-06-15T00:57:12.021Z,67.69
2017-06-15T00:58:12.062Z,67.69
2017-06-15T00:59:12.099Z,67.69
2017-06-15T01:00:12.140Z,68.07
2017-06-15T01:01:12.176Z,68.07
2017-06-15T01:02:12.218Z,67.98
2017-06-15T01:03:12.254Z,68.17
2017-06-15T01:04:12.297Z,67.94
2017-06-15T01:05:12.333Z,67.88
2017-06-15T01:06:12.369Z,68.9
2017-06-15T01:07:12.408Z,68.36
2017-06-15T01:08:12.452Z,68.52
2017-06-15T01:09:12.483Z,68.42
2017-06-15T01:10:12.525Z,67.85
2017-06-15T01:11:12.563Z,68.52
2017-06-15T01:12:12.601Z,68.13
2017-06-15T01:13:12.640Z,68.42
2017-06-15T01:14:12.676Z,67.94
2017-06-15T01:15:12.720Z,68.33
2017-06-15T01:16:12.755Z,68.62
2017-06-15T01:17:12.797Z,68.71
2017-06-15T01:18:12.833Z,68.8
2017-06-15T01:19:12.874Z,68.8
2017-06-15T01:20:12.911Z,68.23
2017-06-15T01:21:12.944Z,68.33
2017-06-15T01:22:12.986Z,68.42
2017-06-15T01:23:13.024Z,68.9
2017-06-15T01:24:13.060Z,68.8
2017-06-15T01:25:13.103Z,68.62
2017-06-15T01:26:13.142Z,68.71
2017-06-15T01:27:13.176Z,68.9
2017-06-15T01:28:13.218Z,68.71
2017-06-15T01:29:13.254Z,68.9
2017-06-15T01:30:13.295Z,69.19
2017-06-15T01:31:13.331Z,69.29
2017-06-15T01:32:13.369Z,69.19
2017-06-15T01:33:13.405Z,69.38
2017-06-15T01:34:13.448Z,69.19
2017-06-15T01:35:13.486Z,69.19
2017-06-15T01:36:13.526Z,69.19
2017-06-15T01:37:13.562Z,69
2017-06-15T01:38:13.599Z,68.9
2017-06-15T01:39:13.638Z,69.09
2017-06-15T01:40:13.677Z,69.09
2017-06-15T01:41:13.716Z,68.8
2017-06-15T01:42:13.754Z,69.38
2017-06-15T01:43:13.791Z,68.9
2017-06-15T01:44:13.828Z,69
2017-06-15T01:45:13.872Z,69.19
2017-06-15T01:46:13.906Z,69.29
2017-06-15T01:47:13.947Z,69.09
2017-06-15T01:48:13.983Z,69.09
2017-06-15T01:49:14.022Z,69.19
2017-06-15T01:50:14.062Z,69.76
2017-06-15T01:51:14.102Z,69.67
2017-06-15T01:52:14.136Z,69.67
2017-06-15T01:53:14.175Z,69.19
2017-06-15T01:54:14.215Z,69.86
2017-06-15T01:55:14.255Z,69.86
2017-06-15T01:56:14.289Z,69.09
2017-06-15T01:57:14.330Z,69.86
2017-06-15T01:58:14.368Z,69.86
2017-06-15T01:59:14.408Z,69.86
2017-06-15T02:00:14.444Z,69.57
2017-06-15T02:01:14.482Z,69.57
2017-06-15T02:02:14.520Z,69.57
2017-06-15T02:03:14.562Z,69.67
2017-06-15T02:04:14.605Z,69.48
2017-06-15T02:05:14.636Z,69.67
2017-06-15T02:06:14.675Z,69.76
2017-06-15T02:07:14.709Z,69.76
2017-06-15T02:08:15.069Z,69.82
2017-06-15T02:09:14.788Z,69.44
2017-06-15T02:10:14.828Z,70.21
2017-06-15T02:11:14.867Z,69.95
2017-06-15T02:12:14.904Z,69.82
2017-06-15T02:13:14.945Z,69.92
2017-06-15T02:14:14.982Z,70.11
2017-06-15T02:15:15.020Z,70.21
2017-06-15T02:16:15.057Z,70.11
2017-06-15T02:17:15.098Z,69.92
2017-06-15T02:18:15.130Z,70.4
2017-06-15T02:19:15.177Z,70.11
2017-06-15T02:20:15.248Z,70.59
2017-06-15T02:21:15.248Z,70.5
2017-06-15T02:22:15.287Z,70.59
2017-06-15T02:23:15.322Z,70.4
2017-06-15T02:24:15.361Z,70.4
2017-06-15T02:25:15.402Z,70.4
2017-06-15T02:26:15.437Z,70.01
2017-06-15T02:27:15.476Z,70.4
2017-06-15T02:28:15.516Z,70.59
2017-06-15T02:29:15.555Z,70.5
2017-06-15T02:30:15.590Z,70.4
2017-06-15T02:31:15.633Z,70.5
2017-06-15T02:32:15.668Z,70.5
2017-06-15T02:33:15.707Z,71.36
2017-06-15T02:34:15.747Z,70.78
2017-06-15T02:35:15.784Z,71.16
2017-06-15T02:36:15.820Z,70.5
2017-06-15T02:37:15.858Z,70.87
2017-06-15T02:38:15.897Z,70.87
2017-06-15T02:39:15.939Z,71.16
2017-06-15T02:40:15.971Z,71.16
2017-06-15T02:41:16.012Z,71.07
2017-06-15T02:42:16.063Z,70.78
2017-06-15T02:43:16.089Z,71.07
2017-06-15T02:44:16.124Z,71.07
2017-06-15T02:45:16.172Z,70.78
2017-06-15T02:46:16.206Z,71.07
2017-06-15T02:47:16.238Z,70.97
2017-06-15T02:48:16.280Z,70.78
2017-06-15T02:49:16.318Z,70.87
2017-06-15T02:50:16.350Z,70.68
2017-06-15T02:51:16.392Z,70.59
2017-06-15T02:52:16.428Z,71.26
2017-06-15T02:53:16.470Z,71.16
2017-06-15T02:54:16.507Z,71.64
2017-06-15T02:55:16.542Z,71.55
2017-06-15T02:56:16.583Z,71.26
2017-06-15T02:57:16.619Z,71.26
2017-06-15T02:58:16.657Z,71.64
2017-06-15T02:59:16.698Z,71.64
2017-06-15T03:00:16.734Z,71.16
2017-06-15T03:01:17.083Z,70.87
2017-06-15T03:02:16.812Z,71.26
2017-06-15T03:03:16.850Z,71.16
2017-06-15T03:04:16.886Z,71.36
2017-06-15T03:05:16.930Z,71.07
2017-06-15T03:06:16.961Z,70.87
2017-06-15T03:07:17.004Z,71.16
2017-06-15T03:08:17.037Z,71.73
2017-06-15T03:09:17.078Z,71.55
2017-06-15T03:10:17.116Z,71.26
2017-06-15T03:11:17.157Z,71.16
2017-06-15T03:12:17.188Z,71.45
2017-06-15T03:13:17.228Z,71.55
2017-06-15T03:14:17.265Z,72.12
2017-06-15T03:15:17.307Z,71.73
2017-06-15T03:16:17.342Z,71.83
2017-06-15T03:17:17.383Z,72.02
2017-06-15T03:18:17.417Z,71.45
2017-06-15T03:19:17.457Z,71.73
2017-06-15T03:20:17.497Z,71.36
2017-06-15T03:21:17.532Z,71.73
2017-06-15T03:22:17.572Z,71.26
2017-06-15T03:23:17.923Z,71.45
2017-06-15T03:24:17.651Z,71.45
2017-06-15T03:25:17.686Z,71.55
2017-06-15T03:26:17.727Z,71.77
2017-06-15T03:27:17.767Z,71.55
2017-06-15T03:28:17.803Z,71.39
2017-06-15T03:29:17.844Z,71.39
2017-06-15T03:30:17.881Z,70.91
2017-06-15T03:31:17.920Z,70.85
2017-06-15T03:32:17.960Z,71.14
2017-06-15T03:33:17.995Z,71.14
2017-06-15T03:34:18.038Z,71.37
2017-06-15T03:35:18.079Z,72.23
2017-06-15T03:36:18.113Z,71.31
2017-06-15T03:37:18.155Z,71.59
2017-06-15T03:38:18.194Z,71.34
2017-06-15T03:39:18.231Z,70.42
2017-06-15T03:40:18.272Z,69.84
2017-06-15T03:41:18.315Z,69.11
2017-06-15T03:42:18.351Z,68.57
2017-06-15T03:43:18.389Z,67.99
2017-06-15T03:44:18.435Z,67.07
2017-06-15T03:45:18.471Z,66.49
2017-06-15T03:46:18.511Z,65.94
2017-06-15T03:47:18.554Z,65.75
2017-06-15T03:48:18.593Z,64.92
2017-06-15T03:49:18.630Z,63.6
2017-06-15T03:50:18.674Z,63.41
2017-06-15T03:51:18.714Z,62
2017-06-15T03:52:18.753Z,61.83
2017-06-15T03:53:18.796Z,61.74
2017-06-15T03:54:18.840Z,60.03
2017-06-15T03:55:18.878Z,59.75
2017-06-15T03:56:18.920Z,58.62
2017-06-15T03:57:18.959Z,57.65
2017-06-15T03:58:19.000Z,57.29
2017-06-15T03:59:19.042Z,56.33
2017-06-15T04:00:19.081Z,56.04
2017-06-15T04:01:19.126Z,55.3
2017-06-15T04:02:19.168Z,55.3
2017-06-15T04:03:19.212Z,55.49
2017-06-15T04:04:19.259Z,54.27
2017-06-15T04:05:19.293Z,53.69
2017-06-15T04:06:19.337Z,53.01
2017-06-15T04:07:19.374Z,52.75
2017-06-15T04:08:19.421Z,51.42
2017-06-15T04:09:19.462Z,50.16
2017-06-15T04:10:19.504Z,49.8
2017-06-15T04:11:19.545Z,49.32
2017-06-15T04:12:19.586Z,48.64
2017-06-15T04:13:19.632Z,49.05
2017-06-15T04:14:19.674Z,48.08
2017-06-15T04:15:19.724Z,48.3
2017-06-15T04:16:19.756Z,47.81
2017-06-15T04:17:19.802Z,48.03
2017-06-15T04:18:19.844Z,46.58
2017-06-15T04:19:19.886Z,46.29
2017-06-15T04:20:19.933Z,45.83
2017-06-15T04:21:19.975Z,45.54
2017-06-15T04:22:20.015Z,44.78
2017-06-15T04:23:20.061Z,44.01
2017-06-15T04:24:20.103Z,43.54
2017-06-15T04:25:20.150Z,43.06
2017-06-15T04:26:20.194Z,42.57
2017-06-15T04:27:20.236Z,42.48
2017-06-15T04:28:20.282Z,41.8
2017-06-15T04:29:20.325Z,41.8
2017-06-15T04:30:20.367Z,41.53
2017-06-15T04:31:20.411Z,41.33
2017-06-15T04:32:20.455Z,40.85
2017-06-15T04:33:20.498Z,40.58
2017-06-15T04:34:20.541Z,39.8
2017-06-15T04:35:20.595Z,39.53
2017-06-15T04:36:20.631Z,38.77
2017-06-15T04:37:20.988Z,38.5
2017-06-15T04:38:20.724Z,37.82
2017-06-15T04:39:20.769Z,36.65
2017-06-15T04:40:20.810Z,36.16
2017-06-15T04:41:20.855Z,35.66
2017-06-15T04:42:20.900Z,35.57
2017-06-15T04:43:20.943Z,36.21
2017-06-15T04:44:20.991Z,36.6
2017-06-15T04:45:21.032Z,37.47
2017-06-15T04:46:21.078Z,37.18
2017-06-15T04:47:21.114Z,37.1
2017-06-15T04:48:21.158Z,37.01
2017-06-15T04:49:21.203Z,36.83
2017-06-15T04:50:21.252Z,36.93
2017-06-15T04:51:21.291Z,35.97
2017-06-15T04:52:21.339Z,35
2017-06-15T04:53:21.384Z,35.08
2017-06-15T04:54:21.446Z,35.35
2017-06-15T04:55:21.465Z,35.9
2017-06-15T04:56:21.510Z,36.54
2017-06-15T04:57:21.577Z,36.62
2017-06-15T04:58:21.601Z,37.17
2017-06-15T04:59:21.644Z,37.73
2017-06-15T05:00:21.688Z,38.2
2017-06-15T05:01:21.731Z,38.66
2017-06-15T05:02:21.771Z,38.74
2017-06-15T05:03:21.821Z,39.8
2017-06-15T05:04:21.857Z,40.69
2017-06-15T05:05:21.898Z,40.53
2017-06-15T05:06:21.946Z,40.38
2017-06-15T05:07:21.985Z,39.82
2017-06-15T05:08:22.033Z,38.99
2017-06-15T05:09:22.068Z,38.04
2017-06-15T05:10:22.110Z,37.45
2017-06-15T05:11:22.156Z,37.65
2017-06-15T05:12:22.197Z,37.32
2017-06-15T05:13:22.243Z,37.49
2017-06-15T05:14:22.322Z,38.25
2017-06-15T05:15:22.324Z,38.43
2017-06-15T05:16:22.366Z,38.79
2017-06-15T05:17:22.413Z,38.97
2017-06-15T05:18:22.452Z,39.55
2017-06-15T05:19:22.497Z,40.78
2017-06-15T05:20:22.540Z,40.67
2017-06-15T05:21:22.604Z,41.03
2017-06-15T05:22:22.621Z,41.03
2017-06-15T05:23:22.665Z,41.88
2017-06-15T05:24:22.701Z,42.27
2017-06-15T05:25:22.747Z,42.66
2017-06-15T05:26:22.789Z,42.73
2017-06-15T05:27:22.829Z,43.41
2017-06-15T05:28:22.870Z,43.31
2017-06-15T05:29:22.913Z,43.14
2017-06-15T05:30:22.985Z,42.94
2017-06-15T05:31:23.012Z,43.52
2017-06-15T05:32:23.033Z,43.89
2017-06-15T05:33:23.074Z,44.18
2017-06-15T05:34:23.119Z,43.89
2017-06-15T05:35:23.156Z,44.45
2017-06-15T05:36:23.200Z,44.93
2017-06-15T05:37:23.240Z,45.03
2017-06-15T05:38:23.280Z,45.03
2017-06-15T05:39:23.323Z,45.51
2017-06-15T05:40:23.364Z,46.28
2017-06-15T05:41:23.404Z,46.88
2017-06-15T05:42:23.448Z,47.58
2017-06-15T05:43:23.493Z,47.7
2017-06-15T05:44:24.166Z,46.42
2017-06-15T05:45:23.703Z,45.3
2017-06-15T05:46:23.617Z,43.43
2017-06-15T05:47:23.661Z,42.6
2017-06-15T05:48:24.431Z,41.47
2017-06-15T05:49:24.199Z,39.86
2017-06-15T05:50:23.795Z,39.31
2017-06-15T05:51:23.848Z,37.89
2017-06-15T05:52:23.886Z,36.74
2017-06-15T05:53:23.940Z,36.39
2017-06-15T05:54:23.979Z,35.25
2017-06-15T05:55:24.138Z,34.29
2017-06-15T05:56:24.196Z,33.84
2017-06-15T05:57:24.118Z,32.87
2017-06-15T05:58:24.166Z,32.01
2017-06-15T05:59:24.390Z,31.42
2017-06-15T06:00:24.281Z,31.04
2017-06-15T06:01:24.308Z,30.67
2017-06-15T06:02:24.358Z,29.41
2017-06-15T06:03:24.406Z,28.74
2017-06-15T06:04:24.453Z,27.09
2017-06-15T06:05:24.503Z,27.11
2017-06-15T06:06:24.574Z,26.72
2017-06-15T06:07:24.604Z,26.34
2017-06-15T06:08:24.652Z,25.85
2017-06-15T06:09:24.701Z,25.08
2017-06-15T06:10:24.758Z,24.81
2017-06-15T06:11:24.806Z,24.23
2017-06-15T06:12:24.853Z,23.85
2017-06-15T06:13:24.911Z,23.26
2017-06-15T06:14:24.960Z,22.97
2017-06-15T06:15:25.012Z,22.09
2017-06-15T06:16:25.064Z,22.09
2017-06-15T06:17:25.170Z,21.89
2017-06-15T06:18:25.166Z,21.89
2017-06-15T06:19:25.217Z,22.19
2017-06-15T06:20:25.298Z,21.89
2017-06-15T06:21:25.322Z,20.72
2017-06-15T06:22:25.372Z,20.72
2017-06-15T06:23:25.427Z,20.62
2017-06-15T06:24:25.479Z,20.23
2017-06-15T06:25:25.533Z,20.24
